Leverburgh, United Kingdom
Current Conditions -  °F | °C
As of 11:20 AM on Tuesday 21 Oct 2014 (Local Time) from EGPL Reporting Station
Rain Showers Rain Showers  
Wind Chill: 36°   Ceiling: 4900
Heat Index: 46°   Visibility: 6mi
Dew Point: 37°   Wind: 39mph
Humidity: 71%   Direction: 320°NW
Pressure: 29.53"   Gusts: 52mph
Location:  57.77°N, 7.01°W
Report Text: EGPL 211020Z 32034G45KT 9999 SHRA FEW018 SCT035 BKN049 08/03 Q1000
Loading
Personal Weather Stations






























Interactive Weather Map
Tropical Storm Tracking
New forecast layout! Learn more

10-Day Weather Forecast

Advertisements
Track Severe Weather on mobile